Portada
METAR-TAF:

METAR-TAF

Aeropuertos :

Baréin, Bahréin

Aeropuerto Internacional de Baréin

latitud: 26-16N, longitud: 050-39E, altitud: 2 m

Observación

El informe se hizo hace 35 minutos, a las 15:00 UTC
Viento 7 kt del este-sureste
Temperatura 19°C
Humedad 52%
Presión 1015 hPa
Visibilidad: 5000 m
Cielo despejado
calima

METAR: OBBI 231500Z 12007KT 5000 HZ SKC 19/09 Q1015 NOSIG

Hora: 18:35 (15:35 UTC)

Pronóstico

El informe se hizo hace 4 horas y 35 minutos, a las 11:00 UTC
Pronóstico válido del 23 a las 12 UTC al 24 a las 18 UTC
Viento 8 kt del sur-sureste
Visibilidad: 5000 m

TAF: OBBI 231100Z 2312/2418 16008KT 5000 NSC

Observaciones y pronósticos meteorológicos de más de 4000 aeropuertos (mensajes METAR y TAF).

Los puntos amarillos y rojos representan las estaciones disponibles.

Ponga el ratón en el punto deseado para ver el nombre de la estación.

Haga clic para ver las observaciones y los pronósticos meteorológicos.

Para cambiar el mapa : haga clic en los botones verdes con una cruz de color negro para hacer un zoom, en el botón verde con un guión para alejar o en las flechas verdes para mapas adyacentes.


METAR-TAF: